MLP298 LIMC-EDDS
Flight info
| Callsign | MLP298 |
|---|---|
| Flight time | 0h 45m |
| Altitude | 30000 |
| Route | PEPAG DCT ABESI N851 UTAVO DCT SOPER N851 ROMIR T125 REUTL REUTL5A |
| Aircraft | A320/M-SDE3FGHIRWY/LB1 |
Departure
| Time | 2026-04-30 20:02 |
|---|---|
| Airport | Milan Malpensa International Airport (LIMC) |
Arrival
| Time | 2026-04-30 20:48 |
|---|---|
| Airport | Stuttgart Airport (EDDS) |
| Time | Latitude | Longitude | Altitude | Speed | Heading |
|---|---|---|---|---|---|
| 2026-04-30 19:18 | 45.63160 | 8.71796 | 736 ft | 0 kts | 79° |
| 2026-04-30 19:45 | 45.63161 | 8.71803 | 709 ft | 3 kts | 79° |
| 2026-04-30 19:45 | 45.63159 | 8.71862 | 735 ft | 10 kts | 115° |
| 2026-04-30 19:46 | 45.63080 | 8.71914 | 736 ft | 15 kts | 171° |
| 2026-04-30 19:46 | 45.62961 | 8.71944 | 736 ft | 19 kts | 169° |
| 2026-04-30 19:46 | 45.62816 | 8.71984 | 736 ft | 23 kts | 167° |
| 2026-04-30 19:46 | 45.62769 | 8.71998 | 735 ft | 0 kts | 166° |
| 2026-04-30 19:47 | 45.62756 | 8.72002 | 736 ft | 5 kts | 168° |
| 2026-04-30 19:48 | 45.62747 | 8.72005 | 737 ft | 0 kts | 168° |
| 2026-04-30 19:48 | 45.62746 | 8.72005 | 736 ft | 1 kts | 168° |
| 2026-04-30 19:48 | 45.62712 | 8.72015 | 737 ft | 9 kts | 169° |
| 2026-04-30 19:49 | 45.62624 | 8.72037 | 737 ft | 15 kts | 169° |
| 2026-04-30 19:49 | 45.62391 | 8.72099 | 737 ft | 13 kts | 183° |
| 2026-04-30 19:49 | 45.62347 | 8.71983 | 737 ft | 13 kts | 257° |
| 2026-04-30 19:50 | 45.62266 | 8.71935 | 736 ft | 16 kts | 170° |
| 2026-04-30 19:50 | 45.62144 | 8.71968 | 737 ft | 20 kts | 169° |
| 2026-04-30 19:50 | 45.61996 | 8.72008 | 737 ft | 23 kts | 168° |
| 2026-04-30 19:50 | 45.61870 | 8.72045 | 737 ft | 17 kts | 169° |
| 2026-04-30 19:51 | 45.61739 | 8.72082 | 737 ft | 21 kts | 169° |
| 2026-04-30 19:51 | 45.61611 | 8.72115 | 737 ft | 19 kts | 168° |
| 2026-04-30 19:51 | 45.61476 | 8.72155 | 737 ft | 18 kts | 169° |
| 2026-04-30 19:51 | 45.61376 | 8.72181 | 737 ft | 15 kts | 170° |
| 2026-04-30 19:52 | 45.61263 | 8.72212 | 736 ft | 18 kts | 168° |
| 2026-04-30 19:52 | 45.61135 | 8.72251 | 736 ft | 21 kts | 167° |
| 2026-04-30 19:52 | 45.60981 | 8.72288 | 737 ft | 20 kts | 169° |
| 2026-04-30 19:52 | 45.60845 | 8.72327 | 737 ft | 15 kts | 168° |
| 2026-04-30 19:53 | 45.60720 | 8.72365 | 737 ft | 19 kts | 166° |
| 2026-04-30 19:53 | 45.60635 | 8.72519 | 737 ft | 24 kts | 96° |
| 2026-04-30 19:53 | 45.60625 | 8.72672 | 737 ft | 15 kts | 95° |
| 2026-04-30 19:53 | 45.60614 | 8.72858 | 737 ft | 22 kts | 95° |
| 2026-04-30 19:54 | 45.60597 | 8.73091 | 737 ft | 22 kts | 96° |
| 2026-04-30 19:54 | 45.60651 | 8.73278 | 737 ft | 25 kts | 27° |
| 2026-04-30 19:54 | 45.60729 | 8.73325 | 737 ft | 0 kts | 22° |
| 2026-04-30 19:55 | 45.60731 | 8.73326 | 737 ft | 1 kts | 22° |
| 2026-04-30 19:55 | 45.60733 | 8.73327 | 737 ft | 0 kts | 22° |
| 2026-04-30 19:56 | 45.60734 | 8.73328 | 737 ft | 6 kts | 22° |
| 2026-04-30 19:56 | 45.60830 | 8.73384 | 737 ft | 17 kts | 22° |
| 2026-04-30 19:56 | 45.60956 | 8.73392 | 736 ft | 20 kts | 348° |
| 2026-04-30 19:57 | 45.61092 | 8.73355 | 737 ft | 20 kts | 350° |
| 2026-04-30 19:57 | 45.61228 | 8.73319 | 737 ft | 21 kts | 349° |
| 2026-04-30 19:57 | 45.61372 | 8.73278 | 737 ft | 20 kts | 348° |
| 2026-04-30 19:57 | 45.61502 | 8.73240 | 737 ft | 18 kts | 348° |
| 2026-04-30 19:58 | 45.61605 | 8.73232 | 737 ft | 11 kts | 35° |
| 2026-04-30 19:58 | 45.61625 | 8.73332 | 737 ft | 10 kts | 79° |
| 2026-04-30 19:58 | 45.61631 | 8.73419 | 737 ft | 1 kts | 97° |
| 2026-04-30 19:58 | 45.61631 | 8.73420 | 737 ft | 0 kts | 97° |
| 2026-04-30 20:00 | 45.61630 | 8.73424 | 737 ft | 3 kts | 102° |
| 2026-04-30 20:00 | 45.61604 | 8.73516 | 735 ft | 16 kts | 113° |
| 2026-04-30 20:00 | 45.61587 | 8.73609 | 737 ft | 9 kts | 91° |
| 2026-04-30 20:00 | 45.61599 | 8.73692 | 737 ft | 10 kts | 74° |
| 2026-04-30 20:01 | 45.62034 | 8.73623 | 737 ft | 89 kts | 348° |
| 2026-04-30 20:01 | 45.62849 | 8.73397 | 736 ft | 147 kts | 349° |
| 2026-04-30 20:01 | 45.63939 | 8.73097 | 1173 ft | 156 kts | 349° |
| 2026-04-30 20:02 | 45.65972 | 8.74403 | 2297 ft | 184 kts | 61° |
| 2026-04-30 20:02 | 45.66621 | 8.76032 | 2880 ft | 201 kts | 53° |
| 2026-04-30 20:03 | 45.68763 | 8.78816 | 4396 ft | 212 kts | 41° |
| 2026-04-30 20:03 | 45.69898 | 8.80177 | 5202 ft | 215 kts | 40° |
| 2026-04-30 20:03 | 45.71051 | 8.81552 | 5999 ft | 216 kts | 40° |
| 2026-04-30 20:03 | 45.72184 | 8.82994 | 6709 ft | 224 kts | 51° |
| 2026-04-30 20:04 | 45.72787 | 8.85127 | 7119 ft | 244 kts | 79° |
| 2026-04-30 20:04 | 45.73270 | 8.87566 | 7525 ft | 267 kts | 58° |
| 2026-04-30 20:04 | 45.74619 | 8.89414 | 8235 ft | 275 kts | 30° |
| 2026-04-30 20:05 | 45.78185 | 8.91589 | 10129 ft | 282 kts | 20° |
| 2026-04-30 20:05 | 45.80039 | 8.92642 | 10756 ft | 296 kts | 22° |
| 2026-04-30 20:05 | 45.83998 | 8.95327 | 11821 ft | 325 kts | 27° |
| 2026-04-30 20:06 | 45.86004 | 8.96880 | 12683 ft | 329 kts | 29° |
| 2026-04-30 20:06 | 45.87976 | 8.98477 | 13516 ft | 331 kts | 30° |
| 2026-04-30 20:06 | 45.89984 | 9.00138 | 14297 ft | 334 kts | 30° |
| 2026-04-30 20:06 | 45.91999 | 9.01818 | 15043 ft | 336 kts | 30° |
| 2026-04-30 20:07 | 45.94026 | 9.03510 | 15801 ft | 339 kts | 30° |
| 2026-04-30 20:07 | 45.96090 | 9.05171 | 16545 ft | 341 kts | 25° |
| 2026-04-30 20:07 | 46.00732 | 9.06677 | 18001 ft | 350 kts | 1° |
| 2026-04-30 20:08 | 46.03174 | 9.06378 | 18672 ft | 354 kts | 355° |
| 2026-04-30 20:08 | 46.05631 | 9.05969 | 19189 ft | 357 kts | 356° |
| 2026-04-30 20:08 | 46.08113 | 9.05558 | 19812 ft | 360 kts | 356° |
| 2026-04-30 20:08 | 46.10608 | 9.05148 | 20428 ft | 362 kts | 356° |
| 2026-04-30 20:09 | 46.13116 | 9.04740 | 20987 ft | 365 kts | 356° |
| 2026-04-30 20:09 | 46.15650 | 9.04331 | 21560 ft | 368 kts | 356° |
| 2026-04-30 20:09 | 46.20784 | 9.03584 | 22725 ft | 373 kts | 357° |
| 2026-04-30 20:10 | 46.25990 | 9.02925 | 23849 ft | 378 kts | 357° |
| 2026-04-30 20:10 | 46.28628 | 9.02588 | 24266 ft | 382 kts | 357° |
| 2026-04-30 20:10 | 46.31137 | 9.02255 | 24690 ft | 384 kts | 357° |
| 2026-04-30 20:11 | 46.31364 | 9.02224 | 24719 ft | 384 kts | 356° |
| 2026-04-30 20:11 | 46.33980 | 9.01850 | 24869 ft | 369 kts | 357° |
| 2026-04-30 20:11 | 46.36468 | 9.01501 | 24983 ft | 349 kts | 358° |
| 2026-04-30 20:12 | 46.41075 | 9.00881 | 25215 ft | 328 kts | 358° |
| 2026-04-30 20:12 | 46.43405 | 9.00588 | 25335 ft | 343 kts | 358° |
| 2026-04-30 20:12 | 46.45834 | 9.00286 | 25461 ft | 358 kts | 358° |
| 2026-04-30 20:13 | 46.48369 | 8.99961 | 25581 ft | 372 kts | 358° |
| 2026-04-30 20:13 | 46.50984 | 8.99615 | 25711 ft | 384 kts | 358° |
| 2026-04-30 20:13 | 46.53668 | 8.99252 | 26018 ft | 390 kts | 358° |
| 2026-04-30 20:13 | 46.56380 | 8.98882 | 26409 ft | 393 kts | 358° |
| 2026-04-30 20:14 | 46.59111 | 8.98507 | 26829 ft | 396 kts | 358° |
| 2026-04-30 20:14 | 46.61867 | 8.98125 | 27251 ft | 398 kts | 358° |
| 2026-04-30 20:14 | 46.64635 | 8.97748 | 27663 ft | 401 kts | 358° |
| 2026-04-30 20:14 | 46.67427 | 8.97373 | 28100 ft | 404 kts | 358° |
| 2026-04-30 20:15 | 46.70233 | 8.96994 | 28463 ft | 406 kts | 358° |
| 2026-04-30 20:15 | 46.73024 | 8.96611 | 28860 ft | 409 kts | 358° |
| 2026-04-30 20:15 | 46.75869 | 8.96223 | 29245 ft | 411 kts | 358° |
| 2026-04-30 20:15 | 46.78727 | 8.95833 | 29641 ft | 414 kts | 358° |
| 2026-04-30 20:16 | 46.81604 | 8.95440 | 30014 ft | 417 kts | 358° |
| 2026-04-30 20:16 | 46.84503 | 8.95046 | 30213 ft | 417 kts | 358° |
| 2026-04-30 20:16 | 46.87349 | 8.94659 | 30237 ft | 402 kts | 359° |
| 2026-04-30 20:17 | 46.92813 | 8.93909 | 30231 ft | 391 kts | 359° |
| 2026-04-30 20:17 | 46.98207 | 8.93177 | 30241 ft | 389 kts | 359° |
| 2026-04-30 20:18 | 47.03602 | 8.92436 | 30236 ft | 389 kts | 359° |
| 2026-04-30 20:18 | 47.09002 | 8.91693 | 30243 ft | 390 kts | 359° |
| 2026-04-30 20:19 | 47.14397 | 8.90945 | 30243 ft | 389 kts | 359° |
| 2026-04-30 20:19 | 47.19788 | 8.90195 | 30239 ft | 389 kts | 359° |
| 2026-04-30 20:20 | 47.25180 | 8.89450 | 30247 ft | 389 kts | 359° |
| 2026-04-30 20:20 | 47.30508 | 8.89838 | 30249 ft | 381 kts | 17° |
| 2026-04-30 20:21 | 47.35513 | 8.92267 | 30250 ft | 379 kts | 22° |
| 2026-04-30 20:21 | 47.40492 | 8.94828 | 30252 ft | 379 kts | 22° |
| 2026-04-30 20:22 | 47.45475 | 8.97404 | 30257 ft | 379 kts | 22° |
| 2026-04-30 20:22 | 47.50466 | 8.99971 | 30261 ft | 379 kts | 22° |
| 2026-04-30 20:23 | 47.55412 | 9.02522 | 30259 ft | 379 kts | 22° |
| 2026-04-30 20:23 | 47.60391 | 9.05103 | 30268 ft | 379 kts | 22° |
| 2026-04-30 20:24 | 47.65366 | 9.07689 | 30270 ft | 379 kts | 22° |
| 2026-04-30 20:24 | 47.70113 | 9.10951 | 30271 ft | 374 kts | 37° |
| 2026-04-30 20:25 | 47.75023 | 9.19713 | 30268 ft | 370 kts | 58° |
| 2026-04-30 20:26 | 47.80120 | 9.28158 | 30220 ft | 372 kts | 31° |
| 2026-04-30 20:26 | 47.85047 | 9.30300 | 29648 ft | 371 kts | 10° |
| 2026-04-30 20:26 | 47.87624 | 9.30546 | 29371 ft | 372 kts | 7° |
| 2026-04-30 20:27 | 47.92765 | 9.30963 | 28823 ft | 368 kts | 7° |
| 2026-04-30 20:27 | 47.97831 | 9.31407 | 28285 ft | 366 kts | 7° |
| 2026-04-30 20:28 | 48.02923 | 9.31812 | 27759 ft | 363 kts | 6° |
| 2026-04-30 20:28 | 48.07920 | 9.32186 | 27234 ft | 360 kts | 6° |
| 2026-04-30 20:29 | 48.12910 | 9.32560 | 26730 ft | 358 kts | 6° |
| 2026-04-30 20:30 | 48.20323 | 9.33304 | 25979 ft | 353 kts | 9° |
| 2026-04-30 20:30 | 48.27524 | 9.31387 | 24488 ft | 362 kts | 346° |
| 2026-04-30 20:31 | 48.33952 | 9.28393 | 23192 ft | 360 kts | 346° |
| 2026-04-30 20:32 | 48.40895 | 9.25165 | 21823 ft | 332 kts | 347° |
| 2026-04-30 20:32 | 48.45158 | 9.23179 | 21003 ft | 314 kts | 347° |
| 2026-04-30 20:33 | 48.47241 | 9.22213 | 20592 ft | 313 kts | 347° |
| 2026-04-30 20:33 | 48.51391 | 9.20287 | 19792 ft | 311 kts | 347° |
| 2026-04-30 20:33 | 48.53451 | 9.19328 | 19397 ft | 309 kts | 347° |
| 2026-04-30 20:34 | 48.57254 | 9.16266 | 18588 ft | 323 kts | 314° |
| 2026-04-30 20:34 | 48.58666 | 9.09833 | 17678 ft | 338 kts | 265° |
| 2026-04-30 20:35 | 48.58127 | 9.06361 | 17276 ft | 344 kts | 254° |
| 2026-04-30 20:35 | 48.57454 | 9.02870 | 16792 ft | 347 kts | 254° |
| 2026-04-30 20:35 | 48.56103 | 8.95901 | 15908 ft | 340 kts | 254° |
| 2026-04-30 20:36 | 48.55447 | 8.92523 | 15481 ft | 331 kts | 254° |
| 2026-04-30 20:36 | 48.54807 | 8.89218 | 15034 ft | 331 kts | 254° |
| 2026-04-30 20:36 | 48.53512 | 8.82521 | 13915 ft | 334 kts | 253° |
| 2026-04-30 20:37 | 48.52857 | 8.79132 | 13307 ft | 331 kts | 253° |
| 2026-04-30 20:37 | 48.52216 | 8.75826 | 12717 ft | 327 kts | 253° |
| 2026-04-30 20:37 | 48.51585 | 8.72592 | 12137 ft | 323 kts | 253° |
| 2026-04-30 20:37 | 48.50952 | 8.69355 | 11567 ft | 320 kts | 253° |
| 2026-04-30 20:38 | 48.50566 | 8.66057 | 10998 ft | 314 kts | 274° |
| 2026-04-30 20:38 | 48.51195 | 8.63028 | 10449 ft | 306 kts | 306° |
| 2026-04-30 20:38 | 48.52704 | 8.60886 | 9872 ft | 295 kts | 334° |
| 2026-04-30 20:39 | 48.56524 | 8.60485 | 8676 ft | 274 kts | 27° |
| 2026-04-30 20:39 | 48.58037 | 8.62093 | 8128 ft | 263 kts | 52° |
| 2026-04-30 20:39 | 48.58912 | 8.64438 | 7680 ft | 253 kts | 76° |
| 2026-04-30 20:40 | 48.59141 | 8.69558 | 7246 ft | 239 kts | 90° |
| 2026-04-30 20:40 | 48.59332 | 8.72028 | 7025 ft | 236 kts | 77° |
| 2026-04-30 20:40 | 48.59799 | 8.74396 | 6765 ft | 234 kts | 75° |
| 2026-04-30 20:41 | 48.60710 | 8.79036 | 6216 ft | 228 kts | 76° |
| 2026-04-30 20:41 | 48.61154 | 8.81315 | 5938 ft | 225 kts | 76° |
| 2026-04-30 20:41 | 48.61591 | 8.83574 | 5666 ft | 224 kts | 76° |
| 2026-04-30 20:41 | 48.62019 | 8.85789 | 5378 ft | 215 kts | 77° |
| 2026-04-30 20:42 | 48.62431 | 8.87912 | 5144 ft | 206 kts | 77° |
| 2026-04-30 20:42 | 48.62818 | 8.89907 | 5015 ft | 195 kts | 77° |
| 2026-04-30 20:42 | 48.63527 | 8.93595 | 4817 ft | 169 kts | 78° |
| 2026-04-30 20:43 | 48.63847 | 8.95305 | 4676 ft | 169 kts | 78° |
| 2026-04-30 20:43 | 48.64170 | 8.97002 | 4481 ft | 167 kts | 78° |
| 2026-04-30 20:43 | 48.64490 | 8.98671 | 4264 ft | 166 kts | 78° |
| 2026-04-30 20:44 | 48.65130 | 9.02001 | 3826 ft | 163 kts | 78° |
| 2026-04-30 20:44 | 48.65437 | 9.03597 | 3623 ft | 154 kts | 78° |
| 2026-04-30 20:44 | 48.66012 | 9.06593 | 3214 ft | 141 kts | 78° |
| 2026-04-30 20:45 | 48.66539 | 9.09329 | 2833 ft | 133 kts | 78° |
| 2026-04-30 20:45 | 48.66796 | 9.10665 | 2642 ft | 132 kts | 78° |
| 2026-04-30 20:45 | 48.67054 | 9.11998 | 2514 ft | 132 kts | 78° |
| 2026-04-30 20:46 | 48.67813 | 9.16002 | 1905 ft | 132 kts | 74° |
| 2026-04-30 20:46 | 48.68021 | 9.17087 | 1742 ft | 132 kts | 75° |
| 2026-04-30 20:47 | 48.68519 | 9.19737 | 1403 ft | 131 kts | 74° |
| 2026-04-30 20:47 | 48.68769 | 9.21040 | 1290 ft | 121 kts | 74° |
| 2026-04-30 20:48 | 48.69041 | 9.22485 | 1287 ft | 15 kts | 72° |
| 2026-04-30 20:48 | 48.69111 | 9.22544 | 1289 ft | 12 kts | 349° |
| 2026-04-30 20:48 | 48.69193 | 9.22509 | 1285 ft | 14 kts | 346° |
| 2026-04-30 20:48 | 48.69220 | 9.22496 | 1286 ft | 0 kts | 341° |
| 2026-04-30 20:49 | 48.69233 | 9.22490 | 1287 ft | 6 kts | 341° |
| 2026-04-30 20:49 | 48.69286 | 9.22431 | 1287 ft | 12 kts | 291° |
| 2026-04-30 20:50 | 48.69248 | 9.22181 | 1289 ft | 13 kts | 254° |
| 2026-04-30 20:50 | 48.69222 | 9.22047 | 1285 ft | 12 kts | 253° |
| 2026-04-30 20:50 | 48.69196 | 9.21916 | 1286 ft | 15 kts | 253° |
| 2026-04-30 20:50 | 48.69168 | 9.21768 | 1285 ft | 16 kts | 260° |
| 2026-04-30 20:51 | 48.69140 | 9.21611 | 1285 ft | 16 kts | 253° |
| 2026-04-30 20:51 | 48.69088 | 9.21342 | 1287 ft | 13 kts | 254° |
| 2026-04-30 20:51 | 48.69061 | 9.21200 | 1287 ft | 15 kts | 255° |
| 2026-04-30 20:52 | 48.69032 | 9.21043 | 1288 ft | 16 kts | 254° |
| 2026-04-30 20:52 | 48.69003 | 9.20900 | 1290 ft | 13 kts | 254° |
| 2026-04-30 20:52 | 48.68965 | 9.20649 | 1285 ft | 10 kts | 278° |
| 2026-04-30 20:53 | 48.69005 | 9.20561 | 1288 ft | 11 kts | 314° |
| 2026-04-30 20:53 | 48.69047 | 9.20497 | 1288 ft | 8 kts | 315° |
| 2026-04-30 20:53 | 48.69065 | 9.20425 | 1288 ft | 6 kts | 266° |
| 2026-04-30 20:54 | 48.69033 | 9.20400 | 1288 ft | 5 kts | 182° |
| 2026-04-30 20:54 | 48.68996 | 9.20412 | 1291 ft | 4 kts | 163° |
| 2026-04-30 20:54 | 48.68981 | 9.20419 | 1288 ft | 0 kts | 163° |